Time;durP1;ratioP1;P1;durP2;ratioP2;P2;SDS_P1;SDS_P2;PMS_P1;PMS_P2;Temp;Humidity;BMP_temperature;BMP_pressure;BME280_temperature;BME280_humidity;BME280_pressure;Samples;Min_cycle;Max_cycle;Signal;HPM_P1;HPM_P2
2023/07/10 00:00:54;;;;;;;;;;;;;;;26.93;100.00;100085.56;5027488;28;19929;-76
2023/07/10 00:03:20;;;;;;;5.80;5.30;;;;;;;26.95;100.00;100083.47;5020789;28;19971;-76
2023/07/10 00:05:45;;;;;;;8.18;4.38;;;;;;;26.95;100.00;100088.88;5027575;28;20394;-77
2023/07/10 00:08:11;;;;;;;7.50;5.10;;;;;;;26.87;100.00;100078.34;5023930;28;20026;-76
2023/07/10 00:10:36;;;;;;;6.70;5.00;;;;;;;26.82;100.00;100080.94;5027904;28;20082;-76
2023/07/10 00:13:02;;;;;;;;;;;;;;;26.76;100.00;100080.00;5024776;28;20032;-76
2023/07/10 00:15:27;;;;;;;6.40;5.30;;;;;;;26.77;100.00;100080.84;5025075;28;20023;-76
2023/07/10 00:17:53;;;;;;;9.57;4.50;;;;;;;26.70;100.00;100085.53;5027889;28;20016;-76
2023/07/10 00:20:22;;;;;;;5.05;4.40;;;;;;;26.58;100.00;100088.25;5024988;28;19921;-76
2023/07/10 00:22:48;;;;;;;6.23;4.50;;;;;;;26.54;100.00;100092.47;5026199;28;20410;-76
2023/07/10 00:25:17;;;;;;;5.68;5.18;;;;;;;26.46;100.00;100090.94;5026759;28;20037;-76
2023/07/10 00:27:48;;;;;;;6.50;5.20;;;;;;;26.45;100.00;100093.88;5023390;28;20042;-76
2023/07/10 00:30:16;;;;;;;5.32;4.80;;;;;;;26.33;100.00;100096.53;5030054;28;20044;-76
2023/07/10 00:32:42;;;;;;;;;;;;;;;26.24;100.00;100087.13;5041996;28;20080;-75
2023/07/10 00:35:10;;;;;;;;;;;;;;;26.17;100.00;100086.38;5024351;28;19923;-77
2023/07/10 00:37:35;;;;;;;;;;;;;;;26.16;100.00;100094.72;5026907;28;20007;-76
2023/07/10 00:40:00;;;;;;;;;;;;;;;26.16;100.00;100090.13;5027445;28;20391;-76
2023/07/10 00:42:26;;;;;;;;;;;;;;;26.10;100.00;100091.03;5024033;28;19974;-76
2023/07/10 00:44:55;;;;;;;;;;;;;;;26.05;100.00;100093.63;5026568;28;19971;-76
2023/07/10 00:47:26;;;;;;;;;;;;;;;26.01;100.00;100090.56;5026989;28;19918;-76
2023/07/10 00:49:58;;;;;;;;;;;;;;;26.05;100.00;100086.34;5033344;28;20019;-77
2023/07/10 00:52:38;;;;;;;;;;;;;;;26.05;100.00;100094.44;5040489;28;20361;-76
2023/07/10 00:55:24;;;;;;;;;;;;;;;26.07;100.00;100091.53;5028882;28;20016;-76
2023/07/10 00:57:58;;;;;;;;;;;;;;;26.08;100.00;100087.78;5022729;28;19924;-76
2023/07/10 01:00:24;;;;;;;;;;;;;;;26.00;100.00;100085.38;5024801;28;19925;-76
2023/07/10 01:02:50;;;;;;;;;;;;;;;26.03;100.00;100084.94;5035972;28;20320;-76
2023/07/10 01:05:16;;;;;;;;;;;;;;;26.03;100.00;100080.34;5024728;28;20380;-76
2023/07/10 01:07:50;;;;;;;;;;;;;;;26.02;100.00;100088.69;5029685;28;19979;-76
2023/07/10 01:10:15;;;;;;;;;;;;;;;25.96;100.00;100095.84;5032298;28;19917;-76
2023/07/10 01:12:42;;;;;;;;;;;;;;;25.91;100.00;100086.78;5031129;28;20407;-76
2023/07/10 01:15:08;;;;;;;;;;;;;;;25.75;100.00;100087.38;5043483;28;19939;-76
2023/07/10 01:17:34;;;;;;;;;;;;;;;25.70;100.00;100090.78;5048095;28;19976;-76
2023/07/10 01:20:02;;;;;;;;;;;;;;;25.68;100.00;100099.13;5026974;28;20373;-76
2023/07/10 01:22:28;;;;;;;;;;;;;;;25.64;100.00;100091.69;5028678;28;19921;-75
2023/07/10 01:24:54;;;;;;;;;;;;;;;25.34;100.00;100090.78;5029533;28;19917;-76
2023/07/10 01:27:21;;;;;;;;;;;;;;;25.25;100.00;100092.97;5027193;28;20335;-76
2023/07/10 01:29:56;;;;;;;;;;;;;;;25.22;100.00;100099.66;5029429;28;20381;-76
2023/07/10 01:32:24;;;;;;;;;;;;;;;25.23;100.00;100089.66;5025355;28;20336;-75
2023/07/10 01:34:52;;;;;;;;;;;;;;;25.27;100.00;100096.28;5027750;28;19940;-76
2023/07/10 01:37:17;;;;;;;;;;;;;;;25.29;100.00;100104.97;5040085;28;19982;-76
2023/07/10 01:39:52;;;;;;;;;;;;;;;25.28;100.00;100103.31;5030659;28;20366;-77
2023/07/10 01:42:18;;;;;;;;;;;;;;;25.18;100.00;100103.03;5026074;28;19917;-76
2023/07/10 01:44:45;;;;;;;;;;;;;;;25.08;100.00;100113.53;5031816;28;20077;-76
2023/07/10 01:47:11;;;;;;;;;;;;;;;25.03;100.00;100118.78;5026995;28;19917;-76
2023/07/10 01:49:39;;;;;;;;;;;;;;;24.98;100.00;100107.78;5046946;28;19960;-76
2023/07/10 01:52:07;;;;;;;;;;;;;;;24.99;100.00;100114.84;5039830;28;19917;-76
2023/07/10 01:54:32;;;;;;;;;;;;;;;25.03;100.00;100116.06;5042415;28;19917;-76
2023/07/10 01:56:58;;;;;;;;;;;;;;;24.97;100.00;100106.16;5024972;28;20456;-75
2023/07/10 01:59:23;;;;;;;;;;;;;;;24.94;100.00;100109.28;5045818;28;19917;-76
2023/07/10 02:01:49;;;;;;;;;;;;;;;24.98;100.00;100114.03;5031422;28;19917;-77
2023/07/10 02:04:14;;;;;;;;;;;;;;;24.91;100.00;100109.75;5027334;28;19917;-75
2023/07/10 02:06:40;;;;;;;;;;;;;;;24.77;100.00;100114.41;5029817;28;19940;-76
2023/07/10 02:09:05;;;;;;;;;;;;;;;24.70;100.00;100109.06;5029278;28;19924;-76
2023/07/10 02:11:34;;;;;;;;;;;;;;;24.76;100.00;100113.59;5039698;28;19917;-76
2023/07/10 02:14:00;;;;;;;;;;;;;;;24.81;100.00;100111.03;5029461;28;19916;-77
2023/07/10 02:16:25;;;;;;;;;;;;;;;24.69;100.00;100115.50;5027828;28;19917;-76
2023/07/10 02:18:50;;;;;;;;;;;;;;;24.53;100.00;100116.06;5029996;28;20473;-76
2023/07/10 02:21:16;;;;;;;;;;;;;;;24.49;100.00;100120.25;5026379;28;19924;-76
2023/07/10 02:23:41;;;;;;;;;;;;;;;24.50;100.00;100121.91;5028167;28;19913;-76
2023/07/10 02:26:06;;;;;;;;;;;;;;;24.56;100.00;100123.72;5023137;28;19917;-76
2023/07/10 02:28:32;;;;;;;;;;;;;;;24.61;100.00;100123.06;5046404;28;19918;-77
2023/07/10 02:30:57;;;;;;;;;;;;;;;24.64;100.00;100128.84;5031519;28;19924;-76
2023/07/10 02:33:23;;;;;;;;;;;;;;;24.62;100.00;100130.94;5022700;28;19924;-76
2023/07/10 02:35:50;;;;;;;;;;;;;;;24.64;100.00;100128.84;5027753;28;19918;-76
2023/07/10 02:38:15;;;;;;;;;;;;;;;24.64;100.00;100128.00;5029182;28;19940;-76
2023/07/10 02:40:42;;;;;;;;;;;;;;;24.58;100.00;100135.13;5025061;28;20023;-75
2023/07/10 02:43:07;;;;;;;;;;;;;;;24.54;100.00;100133.91;5026410;28;19923;-77
2023/07/10 02:45:34;;;;;;;;;;;;;;;24.53;100.00;100131.41;5030692;28;19921;-76
2023/07/10 02:47:59;;;;;;;;;;;;;;;24.50;100.00;100132.72;5039443;28;20003;-76
2023/07/10 02:50:24;;;;;;;;;;;;;;;24.55;100.00;100135.56;5043316;28;19995;-75
2023/07/10 02:52:50;;;;;;;;;;;;;;;24.56;100.00;100131.81;5028800;28;20002;-76
2023/07/10 02:55:15;;;;;;;;;;;;;;;24.50;100.00;100131.88;5038629;28;19924;-77
2023/07/10 02:57:40;;;;;;;;;;;;;;;24.47;100.00;100138.53;5026540;28;19917;-77
2023/07/10 03:00:06;;;;;;;;;;;;;;;24.35;100.00;100134.88;5024648;28;19921;-77
2023/07/10 03:02:32;;;;;;;;;;;;;;;24.31;100.00;100130.97;5024999;28;19917;-77
2023/07/10 03:04:59;;;;;;;;;;;;;;;24.23;100.00;100131.22;5028919;28;19917;-77
2023/07/10 03:07:25;;;;;;;;;;;;;;;24.15;100.00;100134.16;5026228;28;19917;-78
2023/07/10 03:09:50;;;;;;;;;;;;;;;24.13;100.00;100141.63;5027050;28;19921;-77
2023/07/10 03:12:15;;;;;;;;;;;;;;;24.15;100.00;100142.25;5027448;28;20331;-77
2023/07/10 03:14:41;;;;;;;;;;;;;;;24.16;100.00;100142.00;5041660;28;20348;-77
2023/07/10 03:17:06;;;;;;;;;;;;;;;24.11;100.00;100149.09;5036766;28;19924;-76
2023/07/10 03:19:31;;;;;;;;;;;;;;;23.97;100.00;100148.34;5026748;28;19917;-76
2023/07/10 03:21:57;;;;;;;;;;;;;;;23.94;100.00;100149.59;5025439;28;20336;-77
2023/07/10 03:24:22;;;;;;;;;;;;;;;23.98;100.00;100150.00;5029398;28;20341;-77
2023/07/10 03:26:48;;;;;;;;;;;;;;;24.00;100.00;100146.06;5025383;28;20364;-76
2023/07/10 03:29:14;;;;;;;;;;;;;;;24.04;100.00;100146.44;5028797;28;19917;-76
2023/07/10 03:31:39;;;;;;;;;;;;;;;24.05;100.00;100140.84;5028530;28;19917;-76
2023/07/10 03:34:05;;;;;;;;;;;;;;;24.08;100.00;100144.97;5024603;28;20075;-77
2023/07/10 03:36:31;;;;;;;;;;;;;;;24.00;100.00;100154.13;5027914;28;20011;-76
2023/07/10 03:38:57;;;;;;;;;;;;;;;23.97;100.00;100154.59;5027670;28;19924;-76
2023/07/10 03:41:22;;;;;;;;;;;;;;;24.00;100.00;100150.59;5024987;28;19917;-77
2023/07/10 03:43:48;;;;;;;;;;;;;;;24.04;100.00;100149.97;5029760;28;19925;-76
2023/07/10 03:46:14;;;;;;;;;;;;;;;24.05;100.00;100154.31;5026409;28;19917;-76
2023/07/10 03:48:39;;;;;;;;;;;;;;;23.66;100.00;100151.81;5024149;28;19918;-77
2023/07/10 03:51:04;;;;;;;;;;;;;;;23.63;100.00;100152.22;5028126;28;19971;-77
2023/07/10 03:53:30;;;;;;;;;;;;;;;23.70;100.00;100166.50;5025428;28;19924;-75
2023/07/10 03:55:55;;;;;;;;;;;;;;;23.78;100.00;100154.66;5025019;28;20007;-76
2023/07/10 03:58:25;;;;;;;;;;;;;;;23.85;100.00;100156.28;5025258;28;20007;-77
2023/07/10 04:00:51;;;;;;;;;;;;;;;23.93;100.00;100166.81;5026557;28;20831;-77
2023/07/10 04:03:16;;;;;;;;;;;;;;;23.87;100.00;100156.88;5023576;28;19917;-77
2023/07/10 04:05:48;;;;;;;;;;;;;;;23.89;100.00;100156.69;5027869;28;20008;-77
2023/07/10 04:08:13;;;;;;;;;;;;;;;23.95;100.00;100162.03;5024753;28;19918;-77
2023/07/10 04:10:38;;;;;;;;;;;;;;;23.91;100.00;100155.44;5029691;28;20339;-77
2023/07/10 04:13:04;;;;;;;;;;;;;;;23.82;100.00;100159.41;5027043;28;20035;-76
2023/07/10 04:15:29;;;;;;;;;;;;;;;23.80;100.00;100164.16;5029740;28;19924;-76
2023/07/10 04:17:54;;;;;;;;;;;;;;;23.82;100.00;100167.50;5027940;28;19971;-76
2023/07/10 04:20:20;;;;;;;;;;;;;;;23.67;100.00;100169.63;5025750;28;19924;-77
2023/07/10 04:22:45;;;;;;;;;;;;;;;23.59;100.00;100169.84;5026549;28;19919;-77
2023/07/10 04:25:10;;;;;;;;;;;;;;;23.59;100.00;100168.00;5026423;28;19950;-77
2023/07/10 04:27:36;;;;;;;;;;;;;;;23.64;100.00;100164.66;5025107;28;19917;-77
2023/07/10 04:30:01;;;;;;;;;;;;;;;23.68;100.00;100160.47;5030343;28;19917;-77
2023/07/10 04:32:26;;;;;;;;;;;;;;;23.54;100.00;100170.50;5027921;28;20336;-76
2023/07/10 04:34:52;;;;;;;;;;;;;;;23.67;100.00;100165.06;5027116;28;19972;-77
2023/07/10 04:37:17;;;;;;;;;;;;;;;23.70;100.00;100163.81;5026873;28;20293;-77
2023/07/10 04:39:42;;;;;;;;;;;;;;;23.71;100.00;100176.25;5022397;28;19924;-77
2023/07/10 04:42:08;;;;;;;;;;;;;;;23.59;100.00;100175.25;5024633;28;19925;-77
2023/07/10 04:44:33;;;;;;;;;;;;;;;23.64;100.00;100176.25;5025086;28;20520;-76
2023/07/10 04:46:58;;;;;;;;;;;;;;;23.65;100.00;100171.69;5024824;28;20005;-76
2023/07/10 04:49:24;;;;;;;;;;;;;;;23.61;100.00;100173.19;5023806;28;20015;-75
2023/07/10 04:51:49;;;;;;;;;;;;;;;23.36;100.00;100180.25;5029080;28;19940;-77
2023/07/10 04:54:14;;;;;;;;;;;;;;;23.39;100.00;100177.94;5024135;28;19917;-77
2023/07/10 04:56:40;;;;;;;;;;;;;;;23.48;100.00;100175.91;5023119;28;19917;-76
2023/07/10 04:59:05;;;;;;;;;;;;;;;23.50;100.00;100173.84;5024418;28;19963;-77
2023/07/10 05:01:34;;;;;;;;;;;;;;;23.56;100.00;100173.00;5025252;28;19963;-77
2023/07/10 05:03:59;;;;;;;;;;;;;;;23.69;100.00;100172.91;5024430;28;19917;-76
2023/07/10 05:06:25;;;;;;;;;;;;;;;23.78;100.00;100173.53;5027676;28;20466;-77
2023/07/10 05:08:51;;;;;;;;;;;;;;;23.85;100.00;100172.47;5020772;28;19921;-77
2023/07/10 05:11:17;;;;;;;;;;;;;;;23.91;100.00;100170.78;5029126;28;19978;-76
2023/07/10 05:13:42;;;;;;;;;;;;;;;23.96;100.00;100169.09;5023476;28;19924;-77
2023/07/10 05:16:07;;;;;;;;;;;;;;;24.03;100.00;100169.88;5024827;28;19921;-77
2023/07/10 05:18:33;;;;;;;;;;;;;;;24.11;100.00;100181.44;5026518;28;19975;-77
2023/07/10 05:20:59;;;;;;;;;;;;;;;24.20;100.00;100169.41;5026454;22;20012;-77
2023/07/10 05:23:25;;;;;;;;;;;;;;;24.25;100.00;100177.69;5004085;28;19925;-76
2023/07/10 05:25:57;;;;;;;;;;;;;;;24.31;100.00;100187.59;5007974;28;19917;-77
2023/07/10 05:28:23;;;;;;;;;;;;;;;24.28;100.00;100182.63;5004457;28;20429;-78
2023/07/10 05:30:49;;;;;;;;;;;;;;;24.34;100.00;100190.69;5011464;28;20059;-76
2023/07/10 05:33:14;;;;;;;;;;;;;;;24.40;100.00;100183.59;5025622;28;19917;-78
2023/07/10 05:35:50;;;;;;;;;;;;;;;24.41;100.00;100193.34;5006314;28;19964;-77
2023/07/10 05:38:15;;;;;;;;;;;;;;;24.46;100.00;100190.81;5011248;28;19924;-77
2023/07/10 05:40:42;;;;;;;;;;;;;;;24.51;100.00;100187.47;5007403;28;19921;-76
2023/07/10 05:43:07;;;;;;;;;;;;;;;24.51;100.00;100182.91;5008759;28;19917;-78
2023/07/10 05:45:33;;;;;;;;;;;;;;;24.54;100.00;100187.03;5009768;28;20016;-78
2023/07/10 05:47:58;;;;;;;;;;;;;;;24.65;100.00;100197.13;5008590;28;19987;-78
2023/07/10 05:50:23;;;;;;;;;;;;;;;24.72;100.00;100196.03;5004868;28;19918;-78
2023/07/10 05:52:49;;;;;;;;;;;;;;;24.78;100.00;100200.56;5010449;28;19928;-79
2023/07/10 05:55:14;;;;;;;;;;;;;;;24.80;100.00;100195.75;5006469;28;19917;-78
2023/07/10 05:57:39;;;;;;;;;;;;;;;24.77;100.00;100193.50;5026073;28;19917;-77
2023/07/10 06:00:05;;;;;;;;;;;;;;;24.78;100.00;100197.88;5007180;28;19921;-78
2023/07/10 06:02:31;;;;;;;;;;;;;;;24.80;100.00;100187.66;5007883;28;19921;-77
2023/07/10 06:04:56;;;;;;;;;;;;;;;24.78;100.00;100189.78;5010390;28;19918;-78
2023/07/10 06:07:21;;;;;;;;;;;;;;;24.76;100.00;100189.16;5023829;28;19941;-79
2023/07/10 06:09:47;;;;;;;;;;;;;;;24.84;100.00;100191.59;5003636;28;20012;-78
2023/07/10 06:12:13;;;;;;;;;;;;;;;24.88;100.00;100184.72;5010469;28;19975;-78
2023/07/10 06:14:38;;;;;;;;;;;;;;;24.80;100.00;100195.75;5021974;28;20374;-78
2023/07/10 06:17:04;;;;;;;;;;;;;;;24.78;100.00;100195.16;5010112;28;19917;-76
2023/07/10 06:19:29;;;;;;;;;;;;;;;24.90;100.00;100192.63;5009931;28;20028;-77
2023/07/10 06:22:05;;;;;;;;;;;;;;;25.02;100.00;100190.03;5008481;28;19921;-78
2023/07/10 06:24:31;;;;;;;;;;;;;;;25.12;100.00;100182.22;5009933;28;19978;-78
2023/07/10 06:26:56;;;;;;;;;;;;;;;25.23;100.00;100192.31;5008259;28;19921;-78
2023/07/10 06:29:21;;;;;;;;;;;;;;;25.34;100.00;100188.03;5006911;28;20071;-79
2023/07/10 06:31:47;;;;;;;;;;;;;;;25.40;100.00;100184.44;5024968;28;19917;-77
2023/07/10 06:34:12;;;;;;;;;;;;;;;25.49;100.00;100192.06;5006199;28;19936;-78
2023/07/10 06:36:38;;;;;;;;;;;;;;;25.60;100.00;100177.81;5022512;28;20019;-77
2023/07/10 06:39:04;;;;;;;;;;;;;;;25.73;100.00;100184.13;5008806;28;19921;-78
2023/07/10 06:41:30;;;;;;;;;;;;;;;25.80;100.00;100182.19;5007003;28;20296;-76
2023/07/10 06:43:56;;;;;;;;;;;;;;;25.89;100.00;100181.63;5007245;28;19921;-75
2023/07/10 06:46:22;;;;;;;;;;;;;;;25.89;100.00;100178.09;5024524;28;19925;-77
2023/07/10 06:48:47;;;;;;;;;;;;;;;25.96;100.00;100186.94;5008000;28;19918;-78
2023/07/10 06:51:12;;;;;;;;;;;;;;;26.04;100.00;100182.03;5010098;28;20008;-78
2023/07/10 06:53:38;;;;;;;;;;;;;;;26.11;100.00;100179.25;5006966;28;19967;-78
2023/07/10 06:56:04;;;;;;;;;;;;;;;26.18;100.00;100190.81;5007622;28;19917;-76
2023/07/10 06:58:30;;;;;;;;;;;;;;;26.25;100.00;100191.59;5012335;28;20274;-77
2023/07/10 07:00:56;;;;;;;;;;;;;;;26.33;100.00;100187.75;5011612;28;19917;-77
2023/07/10 07:03:21;;;;;;;;;;;;;;;26.37;100.00;100189.75;5010854;28;20438;-77
2023/07/10 07:05:47;;;;;;;;;;;;;;;26.45;100.00;100194.00;5011613;28;19921;-77
2023/07/10 07:08:13;;;;;;;;;;;;;;;26.54;100.00;100189.09;5005430;28;19924;-78
2023/07/10 07:10:40;;;;;;;;;;;;;;;26.65;100.00;100185.56;5009516;28;20026;-77
2023/07/10 07:13:05;;;;;;;;;;;;;;;26.73;100.00;100193.38;5007268;28;20539;-77
2023/07/10 07:15:30;;;;;;;;;;;;;;;26.73;100.00;100193.38;5002627;28;20012;-76
2023/07/10 07:17:56;;;;;;;;;;;;;;;26.77;100.00;100198.09;5006805;28;20073;-78
2023/07/10 07:20:21;;;;;;;;;;;;;;;26.84;100.00;100190.69;5009858;28;19921;-76
2023/07/10 07:22:47;;;;;;;;;;;;;;;26.93;100.00;100198.47;5007087;28;19929;-78
2023/07/10 07:25:12;;;;;;;;;;;;;;;26.95;100.00;100189.06;5008256;28;20000;-77
2023/07/10 07:27:37;;;;;;;;;;;;;;;26.98;100.00;100196.72;5004688;28;20006;-78
2023/07/10 07:30:04;;;;;;;;;;;;;;;27.03;100.00;100193.34;5009203;28;19918;-77
2023/07/10 07:32:30;;;;;;;;;;;;;;;27.08;100.00;100193.44;5023047;28;20363;-76
2023/07/10 07:34:55;;;;;;;;;;;;;;;27.15;100.00;100192.28;5005426;28;19960;-77
2023/07/10 07:37:21;;;;;;;;;;;;;;;27.23;100.00;100182.97;5010085;28;19921;-78
2023/07/10 07:39:46;;;;;;;;;;;;;;;27.28;100.00;100191.19;5020654;28;19924;-77
2023/07/10 07:42:12;;;;;;;;;;;;;;;27.34;100.00;100184.00;5007292;28;19917;-77
2023/07/10 07:44:37;;;;;;;;;;;;;;;27.38;100.00;100190.63;5009637;28;19918;-77
2023/07/10 07:47:02;;;;;;;;;;;;;;;27.44;100.00;100195.09;5006465;28;19959;-77
2023/07/10 07:49:28;;;;;;;;;;;;;;;27.48;100.00;100191.66;5007821;28;19997;-78
2023/07/10 07:51:53;;;;;;;;;;;;;;;27.53;100.00;100204.53;5008248;28;19921;-78
2023/07/10 07:54:19;;;;;;;;;;;;;;;27.57;100.00;100201.09;5004380;28;20017;-76
2023/07/10 07:56:45;;;;;;;;;;;;;;;27.61;100.00;100198.75;5006970;28;20012;-77
2023/07/10 07:59:10;;;;;;;;;;;;;;;27.65;100.00;100205.34;5021061;28;19917;-77
2023/07/10 08:01:36;;;;;;;;;;;;;;;27.69;100.00;100198.38;5004591;28;19917;-77
2023/07/10 08:04:03;;;;;;;;;;;;;;;27.71;100.00;100190.81;5005348;28;19928;-76
2023/07/10 08:06:29;;;;;;;;;;;;;;;27.68;100.00;100180.47;5006761;28;20529;-78
2023/07/10 08:08:55;;;;;;;;;;;;;;;27.73;100.00;100177.88;5004123;28;19951;-78
2023/07/10 08:11:20;;;;;;;;;;;;;;;27.77;100.00;100184.44;5009194;28;19924;-77
2023/07/10 08:13:46;;;;;;;;;;;;;;;27.79;100.00;100176.91;5005106;28;19917;-77
2023/07/10 08:16:12;;;;;;;;;;;;;;;27.83;100.00;100178.06;5006882;28;19921;-78
2023/07/10 08:18:40;;;;;;;;;;;;;;;27.89;100.00;100174.38;5006963;28;19917;-78
2023/07/10 08:21:07;;;;;;;;;;;;;;;27.93;100.00;100172.00;5008338;28;20280;-79
2023/07/10 08:23:33;;;;;;;;;;;;;;;27.99;100.00;100171.03;5004938;28;19927;-78
2023/07/10 08:25:58;;;;;;;;;;;;;;;28.05;100.00;100170.91;5007654;28;19917;-78
2023/07/10 08:28:25;;;;;;;;;;;;;;;28.14;100.00;100170.56;5005541;28;19917;-78
2023/07/10 08:30:50;;;;;;;;;;;;;;;28.20;100.00;100177.72;5009531;28;19976;-77
2023/07/10 08:33:15;;;;;;;;;;;;;;;28.24;100.00;100171.56;5006314;28;20304;-78
2023/07/10 08:35:41;;;;;;;;;;;;;;;28.31;100.00;100174.97;5004289;28;20297;-78
2023/07/10 08:38:06;;;;;;;;;;;;;;;28.36;100.00;100171.50;5023686;28;19950;-77
2023/07/10 08:40:33;;;;;;;;;;;;;;;28.41;100.00;100171.59;5006372;28;20004;-78
2023/07/10 08:43:04;;;;;;;;;;;;;;;28.46;100.00;100171.69;5005578;28;20354;-78
2023/07/10 08:45:33;;;;;;;;;;;;;;;28.50;100.00;100172.88;5008225;28;19917;-79
2023/07/10 08:48:14;;;;;;;;;;;;;;;28.54;100.00;100167.75;5006584;28;20289;-78
2023/07/10 08:50:40;;;;;;;;;;;;;;;28.56;100.00;100166.47;5017556;28;20348;-77
2023/07/10 08:53:13;;;;;;;9.67;5.93;;;;;;;28.63;100.00;100167.09;5008709;28;19918;-78
2023/07/10 08:56:09;;;;;;;8.90;6.45;;;;;;;28.71;100.00;100163.16;5003121;28;20042;-77
2023/07/10 08:58:37;;;;;;;8.55;6.38;;;;;;;28.78;100.00;100161.97;5007274;28;20096;-78
2023/07/10 09:01:16;;;;;;;6.60;6.00;;;;;;;28.84;100.00;100163.69;5009340;28;20030;-76
2023/07/10 09:03:48;;;;;;;6.40;5.82;;;;;;;28.90;100.00;100162.69;5004587;28;20353;-78
2023/07/10 09:06:30;;;;;;;6.90;6.30;;;;;;;28.95;100.00;100166.56;5010053;28;20058;-78
2023/07/10 09:08:55;;;;;;;;;;;;;;;28.97;100.00;100159.00;5004788;28;20038;-78
2023/07/10 09:11:22;;;;;;;;;;;;;;;29.01;100.00;100162.84;5010248;28;20044;-78
2023/07/10 09:14:00;;;;;;;;;;;;;;;29.08;100.00;100160.78;5007612;28;19930;-78
2023/07/10 09:16:26;;;;;;;;;;;;;;;29.14;99.38;100159.78;5011501;28;19952;-79
2023/07/10 09:18:53;;;;;;;;;;;;;;;29.18;99.43;100148.16;5026726;28;19929;-77
2023/07/10 09:21:21;;;;;;;;;;;;;;;29.25;98.73;100145.28;5010082;28;19980;-78
2023/07/10 09:23:47;;;;;;;6.88;5.75;;;;;;;29.29;97.69;100149.97;5009151;28;20056;-77
2023/07/10 09:26:19;;;;;;;7.93;5.68;;;;;;;29.36;96.92;100148.97;5024140;28;20070;-78
2023/07/10 09:28:59;;;;;;;6.22;5.60;;;;;;;29.44;96.00;100151.28;5009655;28;20088;-78
2023/07/10 09:31:51;;;;;;;7.93;6.03;;;;;;;29.50;92.97;100145.66;5009373;28;20541;-78
2023/07/10 09:34:19;;;;;;;;;;;;;;;29.56;92.13;100143.81;5006730;28;20391;-76
2023/07/10 09:36:49;;;;;;;;;;;;;;;29.59;91.77;100149.56;5008050;28;20337;-78
2023/07/10 09:39:15;;;;;;;;;;;;;;;29.66;90.33;100144.78;5006287;28;19976;-79
2023/07/10 09:41:43;;;;;;;6.70;5.18;;;;;;;29.69;89.82;100137.97;5009971;28;19971;-78
2023/07/10 09:44:21;;;;;;;5.40;4.90;;;;;;;29.74;89.49;100135.34;5023619;28;20366;-77
2023/07/10 09:46:48;;;;;;;10.82;5.60;;;;;;;29.79;89.83;100142.75;5009584;28;20058;-78
2023/07/10 09:49:21;;;;;;;7.43;5.03;;;;;;;29.85;88.79;100125.41;5005948;28;20044;-78
2023/07/10 09:52:14;;;;;;;7.30;5.10;;;;;;;29.92;83.17;100126.06;5005401;28;20038;-78
2023/07/10 09:54:40;;;;;;;13.20;6.18;;;;;;;29.98;84.47;100119.59;5009980;28;20046;-77
2023/07/10 09:57:17;;;;;;;11.65;5.03;;;;;;;30.06;84.67;100124.56;5005243;28;20035;-77
2023/07/10 09:59:49;;;;;;;4.97;4.45;;;;;;;30.11;83.46;100130.06;5011524;28;20443;-78
2023/07/10 10:02:18;;;;;;;6.00;4.90;;;;;;;30.18;81.58;100113.53;5009871;28;20125;-78
2023/07/10 10:04:44;;;;;;;5.25;4.85;;;;;;;30.23;81.78;100117.13;5009087;28;20109;-78
2023/07/10 10:07:16;;;;;;;7.43;5.20;;;;;;;30.28;82.97;100102.75;5009636;28;20128;-78
2023/07/10 10:09:41;;;;;;;5.05;4.60;;;;;;;30.33;82.04;100106.34;5009777;28;20445;-77
2023/07/10 10:12:24;;;;;;;6.00;4.65;;;;;;;30.39;79.31;100105.31;5009854;28;20030;-78
2023/07/10 10:14:55;;;;;;;6.60;4.47;;;;;;;30.42;81.25;100098.50;5005361;28;20069;-78
2023/07/10 10:17:24;;;;;;;4.93;4.53;;;;;;;30.43;81.30;100090.06;5005724;28;20458;-78
2023/07/10 10:19:56;;;;;;;7.80;4.10;;;;;;;30.47;80.87;100096.63;5010140;28;20447;-79
2023/07/10 10:22:27;;;;;;;6.78;4.07;;;;;;;30.50;76.36;100096.16;5009135;28;20493;-77
2023/07/10 10:24:53;;;;;;;7.90;3.70;;;;;;;30.58;71.96;100096.75;5008262;28;21253;-78
2023/07/10 10:27:27;;;;;;;;;;;;;;;30.71;68.47;100085.41;5010750;28;20113;-78
2023/07/10 10:29:53;;;;;;;;;;;;;;;30.79;68.85;100093.09;5005931;28;20281;-77
2023/07/10 10:32:23;;;;;;;;;;;;;;;30.84;69.72;100076.78;5011807;28;19918;-78
2023/07/10 10:34:57;;;;;;;;;;;;;;;30.91;70.18;100080.09;5007328;28;19953;-77
2023/07/10 10:37:41;;;;;;;;;;;;;;;30.93;70.55;100077.91;5012457;28;19924;-78
2023/07/10 10:40:13;;;;;;;;;;;;;;;30.98;71.33;100075.25;5009924;28;20333;-76
2023/07/10 10:42:38;;;;;;;;;;;;;;;31.06;70.81;100072.03;5005518;28;20000;-77
2023/07/10 10:45:16;;;;;;;;;;;;;;;31.09;71.21;100071.53;5011883;28;20000;-78
2023/07/10 10:47:49;;;;;;;;;;;;;;;31.15;71.17;100073.19;5008028;28;20277;-77
2023/07/10 10:50:14;;;;;;;;;;;;;;;31.15;70.88;100067.72;5009098;28;19941;-78
2023/07/10 10:52:49;;;;;;;;;;;;;;;31.20;68.02;100061.47;5010348;28;19940;-77
2023/07/10 10:55:18;;;;;;;;;;;;;;;31.27;67.71;100051.97;5004822;28;19917;-78
2023/07/10 10:58:05;;;;;;;;;;;;;;;31.34;68.99;100051.69;5008518;28;19917;-77
2023/07/10 11:00:46;;;;;;;;;;;;;;;31.43;68.43;100049.28;5008190;28;20267;-79
2023/07/10 11:03:44;;;;;;;;;;;;;;;31.46;66.25;100043.28;5006606;28;20282;-79
2023/07/10 11:06:26;;;;;;;;;;;;;;;31.49;66.66;100042.78;4978916;28;19925;-78
2023/07/10 11:08:54;;;;;;;;;;;;;;;31.52;65.98;100047.66;5009382;28;19921;-77
2023/07/10 11:11:23;;;;;;;;;;;;;;;31.53;66.37;100038.41;5010898;28;19917;-77
2023/07/10 11:13:49;;;;;;;;;;;;;;;31.61;63.46;100029.75;5009028;28;20058;-78
2023/07/10 11:16:16;;;;;;;;;;;;;;;31.65;63.31;100028.09;5011967;28;19963;-78
2023/07/10 11:18:41;;;;;;;;;;;;;;;31.67;65.46;100023.22;5008908;28;19921;-78
2023/07/10 11:21:07;;;;;;;;;;;;;;;31.74;65.35;100022.97;5026909;28;20325;-77
2023/07/10 11:23:50;;;;;;;;;;;;;;;31.76;65.76;100021.56;5006868;28;20011;-78
2023/07/10 11:26:17;;;;;;;;;;;;;;;31.83;67.98;100022.13;5004864;28;19917;-78
2023/07/10 11:29:17;;;;;;;;;;;;;;;31.85;68.34;100019.97;5010000;28;19925;-77
2023/07/10 11:31:42;;;;;;;;;;;;;;;31.93;68.62;100011.22;5009336;28;20018;-78
2023/07/10 11:34:14;;;;;;;;;;;;;;;31.94;69.11;100007.41;5002782;28;19956;-78
2023/07/10 11:36:41;;;;;;;;;;;;;;;32.04;68.01;99999.25;5006941;28;19921;-76
2023/07/10 11:39:07;;;;;;;;;;;;;;;32.12;67.98;100003.31;5008025;28;19917;-77
2023/07/10 11:41:58;;;;;;;;;;;;;;;32.20;68.20;99999.25;5006250;28;19921;-78
2023/07/10 11:44:33;;;;;;;;;;;;;;;32.22;68.58;99991.63;5007581;28;19918;-78
2023/07/10 11:47:01;;;;;;;;;;;;;;;32.29;69.07;99992.13;5008401;28;19971;-78
2023/07/10 11:49:42;;;;;;;;;;;;;;;32.48;69.37;99985.84;5005786;28;20040;-78
2023/07/10 11:52:13;;;;;;;;;;;;;;;32.58;68.08;99981.44;5006440;28;19918;-76
2023/07/10 11:54:39;;;;;;;;;;;;;;;32.67;68.64;99983.38;5019779;28;20011;-75
2023/07/10 11:57:07;;;;;;;;;;;;;;;32.70;68.47;99988.28;5009636;28;19987;-77
2023/07/10 11:59:37;;;;;;;;;;;;;;;32.76;68.48;99981.69;5009492;28;19921;-77
2023/07/10 12:02:21;;;;;;;;;;;;;;;32.78;67.26;99979.50;5004994;28;19922;-76
2023/07/10 12:04:46;;;;;;;;;;;;;;;32.84;66.26;99974.84;5007239;28;19964;-78
2023/07/10 12:07:12;;;;;;;;;;;;;;;32.91;67.82;99973.47;5007116;28;19945;-77
2023/07/10 12:09:37;;;;;;;;;;;;;;;33.00;65.16;99961.94;5009751;28;19917;-77
2023/07/10 12:12:03;;;;;;;;;;;;;;;33.09;65.67;99957.53;5009088;28;19939;-77
2023/07/10 12:14:30;;;;;;;;;;;;;;;33.20;65.45;99953.66;5007254;28;19968;-79
2023/07/10 12:16:57;;;;;;;;;;;;;;;33.33;65.63;99958.53;5007675;28;20737;-78
2023/07/10 12:19:27;;;;;;;;;;;;;;;33.49;64.73;99951.84;5008680;28;19917;-78
2023/07/10 12:21:53;;;;;;;;;;;;;;;33.61;61.47;99955.03;5004682;28;19927;-77
2023/07/10 12:24:18;;;;;;;;;;;;;;;33.74;61.24;99947.31;5010550;28;19924;-78